sensor_id;sensor_type;location;lat;lon;timestamp;pressure;altitude;pressure_sealevel;temperature;humidity
81299;BME280;70766;53.170;18.160;2024-01-15T00:01:03;98762.69;;;0.91;100.00
81299;BME280;70766;53.170;18.160;2024-01-15T00:03:51;98758.81;;;0.92;100.00
81299;BME280;70766;53.170;18.160;2024-01-15T00:06:20;98753.95;;;0.93;100.00
81299;BME280;70766;53.170;18.160;2024-01-15T00:08:48;98747.75;;;0.96;100.00
81299;BME280;70766;53.170;18.160;2024-01-15T00:11:16;98741.52;;;0.93;100.00
81299;BME280;70766;53.170;18.160;2024-01-15T00:13:44;98734.16;;;0.85;100.00
81299;BME280;70766;53.170;18.160;2024-01-15T00:16:12;98729.89;;;0.80;100.00
81299;BME280;70766;53.170;18.160;2024-01-15T00:18:41;98724.50;;;0.77;100.00
81299;BME280;70766;53.170;18.160;2024-01-15T00:21:09;98728.48;;;0.75;100.00
81299;BME280;70766;53.170;18.160;2024-01-15T00:23:42;98721.07;;;0.73;100.00
81299;BME280;70766;53.170;18.160;2024-01-15T00:26:12;98724.88;;;0.72;100.00
81299;BME280;70766;53.170;18.160;2024-01-15T00:28:40;98720.84;;;0.70;100.00
81299;BME280;70766;53.170;18.160;2024-01-15T00:31:08;98712.84;;;0.70;100.00
81299;BME280;70766;53.170;18.160;2024-01-15T00:33:37;98709.30;;;0.70;100.00
81299;BME280;70766;53.170;18.160;2024-01-15T00:36:06;98705.29;;;0.69;100.00
81299;BME280;70766;53.170;18.160;2024-01-15T00:38:34;98702.81;;;0.61;100.00
81299;BME280;70766;53.170;18.160;2024-01-15T00:41:02;98698.62;;;0.55;100.00
81299;BME280;70766;53.170;18.160;2024-01-15T00:43:30;98692.43;;;0.49;100.00
81299;BME280;70766;53.170;18.160;2024-01-15T00:46:03;98688.80;;;0.46;100.00
81299;BME280;70766;53.170;18.160;2024-01-15T00:48:32;98685.38;;;0.46;100.00
81299;BME280;70766;53.170;18.160;2024-01-15T00:51:00;98683.99;;;0.47;100.00
81299;BME280;70766;53.170;18.160;2024-01-15T00:53:28;98677.73;;;0.48;100.00
81299;BME280;70766;53.170;18.160;2024-01-15T00:55:57;98671.44;;;0.50;100.00
81299;BME280;70766;53.170;18.160;2024-01-15T00:58:26;98665.91;;;0.52;100.00
81299;BME280;70766;53.170;18.160;2024-01-15T01:00:54;98662.81;;;0.54;100.00
81299;BME280;70766;53.170;18.160;2024-01-15T01:03:23;98658.59;;;0.55;100.00
81299;BME280;70766;53.170;18.160;2024-01-15T01:05:51;98649.39;;;0.56;100.00
81299;BME280;70766;53.170;18.160;2024-01-15T01:08:20;98647.41;;;0.56;100.00
81299;BME280;70766;53.170;18.160;2024-01-15T01:10:48;98641.16;;;0.57;100.00
81299;BME280;70766;53.170;18.160;2024-01-15T01:13:16;98633.02;;;0.58;100.00
81299;BME280;70766;53.170;18.160;2024-01-15T01:15:44;98628.39;;;0.59;100.00
81299;BME280;70766;53.170;18.160;2024-01-15T01:18:12;98624.01;;;0.59;100.00
81299;BME280;70766;53.170;18.160;2024-01-15T01:20:40;98622.67;;;0.53;100.00
81299;BME280;70766;53.170;18.160;2024-01-15T01:23:08;98614.69;;;0.48;100.00
81299;BME280;70766;53.170;18.160;2024-01-15T01:25:37;98613.45;;;0.46;100.00
81299;BME280;70766;53.170;18.160;2024-01-15T01:28:05;98609.27;;;0.46;100.00
81299;BME280;70766;53.170;18.160;2024-01-15T01:30:33;98606.86;;;0.47;100.00
81299;BME280;70766;53.170;18.160;2024-01-15T01:33:01;98598.89;;;0.48;100.00
81299;BME280;70766;53.170;18.160;2024-01-15T01:35:29;98604.12;;;0.50;100.00
81299;BME280;70766;53.170;18.160;2024-01-15T01:37:57;98595.58;;;0.53;100.00
81299;BME280;70766;53.170;18.160;2024-01-15T01:40:25;98587.14;;;0.58;100.00
81299;BME280;70766;53.170;18.160;2024-01-15T01:42:53;98587.95;;;0.59;100.00
81299;BME280;70766;53.170;18.160;2024-01-15T01:45:21;98587.09;;;0.58;100.00
81299;BME280;70766;53.170;18.160;2024-01-15T01:47:49;98588.88;;;0.58;100.00
81299;BME280;70766;53.170;18.160;2024-01-15T01:50:17;98579.66;;;0.57;100.00
81299;BME280;70766;53.170;18.160;2024-01-15T01:52:46;98570.48;;;0.59;100.00
81299;BME280;70766;53.170;18.160;2024-01-15T01:55:14;98567.47;;;0.60;100.00
81299;BME280;70766;53.170;18.160;2024-01-15T01:57:43;98563.48;;;0.62;100.00
81299;BME280;70766;53.170;18.160;2024-01-15T02:00:11;98568.64;;;0.62;100.00
81299;BME280;70766;53.170;18.160;2024-01-15T02:02:40;98555.31;;;0.63;100.00
81299;BME280;70766;53.170;18.160;2024-01-15T02:05:09;98548.86;;;0.63;100.00
81299;BME280;70766;53.170;18.160;2024-01-15T02:07:38;98547.17;;;0.59;100.00
81299;BME280;70766;53.170;18.160;2024-01-15T02:10:06;98539.58;;;0.60;100.00
81299;BME280;70766;53.170;18.160;2024-01-15T02:12:34;98541.42;;;0.58;100.00
81299;BME280;70766;53.170;18.160;2024-01-15T02:15:03;98536.85;;;0.55;100.00
81299;BME280;70766;53.170;18.160;2024-01-15T02:17:31;98535.83;;;0.56;100.00
81299;BME280;70766;53.170;18.160;2024-01-15T02:19:59;98527.79;;;0.56;100.00
81299;BME280;70766;53.170;18.160;2024-01-15T02:22:27;98529.52;;;0.54;100.00
81299;BME280;70766;53.170;18.160;2024-01-15T02:24:55;98517.36;;;0.55;100.00
81299;BME280;70766;53.170;18.160;2024-01-15T02:27:23;98516.02;;;0.54;100.00
81299;BME280;70766;53.170;18.160;2024-01-15T02:29:52;98509.36;;;0.54;100.00
81299;BME280;70766;53.170;18.160;2024-01-15T02:32:20;98510.71;;;0.54;100.00
81299;BME280;70766;53.170;18.160;2024-01-15T02:34:48;98505.89;;;0.54;100.00
81299;BME280;70766;53.170;18.160;2024-01-15T02:37:16;98503.42;;;0.53;100.00
81299;BME280;70766;53.170;18.160;2024-01-15T02:39:44;98501.35;;;0.53;100.00
81299;BME280;70766;53.170;18.160;2024-01-15T02:42:12;98497.66;;;0.53;100.00
81299;BME280;70766;53.170;18.160;2024-01-15T02:44:40;98498.55;;;0.52;100.00
81299;BME280;70766;53.170;18.160;2024-01-15T02:47:08;98487.77;;;0.54;100.00
81299;BME280;70766;53.170;18.160;2024-01-15T02:49:36;98487.40;;;0.54;100.00
81299;BME280;70766;53.170;18.160;2024-01-15T02:52:05;98491.34;;;0.55;100.00
81299;BME280;70766;53.170;18.160;2024-01-15T02:54:33;98490.33;;;0.55;100.00
81299;BME280;70766;53.170;18.160;2024-01-15T02:57:01;98486.81;;;0.54;100.00
81299;BME280;70766;53.170;18.160;2024-01-15T02:59:29;98480.52;;;0.53;100.00
81299;BME280;70766;53.170;18.160;2024-01-15T03:01:58;98474.91;;;0.53;100.00
81299;BME280;70766;53.170;18.160;2024-01-15T03:04:26;98471.42;;;0.53;100.00
81299;BME280;70766;53.170;18.160;2024-01-15T03:06:54;98464.39;;;0.54;100.00
81299;BME280;70766;53.170;18.160;2024-01-15T03:09:22;98461.84;;;0.54;100.00
81299;BME280;70766;53.170;18.160;2024-01-15T03:11:50;98455.64;;;0.55;100.00
81299;BME280;70766;53.170;18.160;2024-01-15T03:14:18;98448.05;;;0.55;100.00
81299;BME280;70766;53.170;18.160;2024-01-15T03:16:46;98441.30;;;0.57;100.00
81299;BME280;70766;53.170;18.160;2024-01-15T03:19:14;98439.85;;;0.56;100.00
81299;BME280;70766;53.170;18.160;2024-01-15T03:21:42;98439.53;;;0.54;100.00
81299;BME280;70766;53.170;18.160;2024-01-15T03:24:10;98432.51;;;0.50;100.00
81299;BME280;70766;53.170;18.160;2024-01-15T03:26:39;98432.70;;;0.47;100.00
81299;BME280;70766;53.170;18.160;2024-01-15T03:29:07;98426.77;;;0.43;100.00
81299;BME280;70766;53.170;18.160;2024-01-15T03:31:35;98425.25;;;0.36;100.00
81299;BME280;70766;53.170;18.160;2024-01-15T03:34:03;98424.76;;;0.31;100.00
81299;BME280;70766;53.170;18.160;2024-01-15T03:36:32;98422.17;;;0.26;100.00
81299;BME280;70766;53.170;18.160;2024-01-15T03:39:00;98419.42;;;0.23;100.00
81299;BME280;70766;53.170;18.160;2024-01-15T03:41:28;98416.63;;;0.19;100.00
81299;BME280;70766;53.170;18.160;2024-01-15T03:43:56;98412.35;;;0.17;100.00
81299;BME280;70766;53.170;18.160;2024-01-15T03:46:24;98404.73;;;0.15;100.00
81299;BME280;70766;53.170;18.160;2024-01-15T03:48:52;98402.70;;;0.15;100.00
81299;BME280;70766;53.170;18.160;2024-01-15T03:51:20;98400.40;;;0.12;100.00
81299;BME280;70766;53.170;18.160;2024-01-15T03:53:49;98396.02;;;0.08;100.00
81299;BME280;70766;53.170;18.160;2024-01-15T03:56:17;98387.31;;;0.06;100.00
81299;BME280;70766;53.170;18.160;2024-01-15T03:58:45;98387.18;;;0.02;100.00
81299;BME280;70766;53.170;18.160;2024-01-15T04:01:13;98390.63;;;-0.01;100.00
81299;BME280;70766;53.170;18.160;2024-01-15T04:03:41;98391.95;;;-0.02;100.00
81299;BME280;70766;53.170;18.160;2024-01-15T04:06:09;98384.71;;;-0.04;100.00
81299;BME280;70766;53.170;18.160;2024-01-15T04:08:38;98385.81;;;-0.05;100.00
81299;BME280;70766;53.170;18.160;2024-01-15T04:11:06;98377.86;;;-0.06;100.00
81299;BME280;70766;53.170;18.160;2024-01-15T04:13:34;98369.48;;;-0.06;100.00
81299;BME280;70766;53.170;18.160;2024-01-15T04:16:02;98371.02;;;-0.05;100.00
81299;BME280;70766;53.170;18.160;2024-01-15T04:18:31;98358.02;;;-0.06;100.00
81299;BME280;70766;53.170;18.160;2024-01-15T04:20:59;98363.30;;;-0.04;100.00
81299;BME280;70766;53.170;18.160;2024-01-15T04:23:27;98362.16;;;-0.04;100.00
81299;BME280;70766;53.170;18.160;2024-01-15T04:25:55;98355.80;;;-0.05;100.00
81299;BME280;70766;53.170;18.160;2024-01-15T04:28:24;98349.73;;;-0.03;100.00
81299;BME280;70766;53.170;18.160;2024-01-15T04:30:52;98353.21;;;-0.05;100.00
81299;BME280;70766;53.170;18.160;2024-01-15T04:33:20;98353.88;;;-0.04;100.00
81299;BME280;70766;53.170;18.160;2024-01-15T04:35:49;98358.71;;;0.03;100.00
81299;BME280;70766;53.170;18.160;2024-01-15T04:38:17;98350.96;;;0.01;100.00
81299;BME280;70766;53.170;18.160;2024-01-15T04:40:46;98348.60;;;0.03;100.00
81299;BME280;70766;53.170;18.160;2024-01-15T04:43:14;98340.42;;;-0.01;100.00
81299;BME280;70766;53.170;18.160;2024-01-15T04:45:42;98329.37;;;-0.02;100.00
81299;BME280;70766;53.170;18.160;2024-01-15T04:48:10;98335.84;;;-0.06;100.00
81299;BME280;70766;53.170;18.160;2024-01-15T04:50:38;98327.30;;;-0.07;100.00
81299;BME280;70766;53.170;18.160;2024-01-15T04:53:06;98328.45;;;-0.08;100.00
81299;BME280;70766;53.170;18.160;2024-01-15T04:55:38;98325.73;;;-0.07;100.00
81299;BME280;70766;53.170;18.160;2024-01-15T04:58:07;98326.52;;;-0.12;100.00
81299;BME280;70766;53.170;18.160;2024-01-15T05:00:35;98326.66;;;-0.12;100.00
81299;BME280;70766;53.170;18.160;2024-01-15T05:03:03;98331.23;;;-0.13;100.00
81299;BME280;70766;53.170;18.160;2024-01-15T05:05:31;98331.16;;;-0.12;100.00
81299;BME280;70766;53.170;18.160;2024-01-15T05:08:00;98330.86;;;-0.10;100.00
81299;BME280;70766;53.170;18.160;2024-01-15T05:10:28;98338.44;;;-0.09;100.00
81299;BME280;70766;53.170;18.160;2024-01-15T05:13:00;98337.70;;;-0.07;100.00
81299;BME280;70766;53.170;18.160;2024-01-15T05:15:28;98337.36;;;-0.07;100.00
81299;BME280;70766;53.170;18.160;2024-01-15T05:17:57;98337.36;;;-0.09;100.00
81299;BME280;70766;53.170;18.160;2024-01-15T05:20:26;98343.63;;;-0.09;100.00
81299;BME280;70766;53.170;18.160;2024-01-15T05:22:54;98338.85;;;-0.07;100.00
81299;BME280;70766;53.170;18.160;2024-01-15T05:25:22;98344.48;;;-0.09;100.00
81299;BME280;70766;53.170;18.160;2024-01-15T05:27:51;98345.66;;;-0.11;100.00
81299;BME280;70766;53.170;18.160;2024-01-15T05:30:19;98341.32;;;-0.14;100.00
81299;BME280;70766;53.170;18.160;2024-01-15T05:32:48;98346.11;;;-0.16;100.00
81299;BME280;70766;53.170;18.160;2024-01-15T05:35:16;98348.18;;;-0.17;100.00
81299;BME280;70766;53.170;18.160;2024-01-15T05:37:45;98347.14;;;-0.18;100.00
81299;BME280;70766;53.170;18.160;2024-01-15T05:40:14;98348.84;;;-0.18;100.00
81299;BME280;70766;53.170;18.160;2024-01-15T05:42:42;98351.85;;;-0.19;100.00
81299;BME280;70766;53.170;18.160;2024-01-15T05:45:10;98348.71;;;-0.18;100.00
81299;BME280;70766;53.170;18.160;2024-01-15T05:47:39;98342.84;;;-0.17;100.00
81299;BME280;70766;53.170;18.160;2024-01-15T05:50:08;98336.78;;;-0.20;100.00
81299;BME280;70766;53.170;18.160;2024-01-15T05:52:37;98336.61;;;-0.19;100.00
81299;BME280;70766;53.170;18.160;2024-01-15T05:55:05;98334.73;;;-0.23;100.00
81299;BME280;70766;53.170;18.160;2024-01-15T05:57:33;98338.14;;;-0.24;100.00
81299;BME280;70766;53.170;18.160;2024-01-15T06:00:03;98334.35;;;-0.24;100.00
81299;BME280;70766;53.170;18.160;2024-01-15T06:02:32;98327.27;;;-0.23;100.00
81299;BME280;70766;53.170;18.160;2024-01-15T06:05:00;98323.80;;;-0.24;100.00
81299;BME280;70766;53.170;18.160;2024-01-15T06:07:31;98330.60;;;-0.24;100.00
81299;BME280;70766;53.170;18.160;2024-01-15T06:09:59;98328.42;;;-0.25;100.00
81299;BME280;70766;53.170;18.160;2024-01-15T06:12:28;98317.55;;;-0.24;100.00
81299;BME280;70766;53.170;18.160;2024-01-15T06:14:56;98314.77;;;-0.25;100.00
81299;BME280;70766;53.170;18.160;2024-01-15T06:17:25;98317.33;;;-0.28;100.00
81299;BME280;70766;53.170;18.160;2024-01-15T06:19:54;98318.81;;;-0.30;100.00
81299;BME280;70766;53.170;18.160;2024-01-15T06:22:23;98322.59;;;-0.30;100.00
81299;BME280;70766;53.170;18.160;2024-01-15T06:24:51;98317.69;;;-0.31;100.00
81299;BME280;70766;53.170;18.160;2024-01-15T06:27:19;98315.59;;;-0.28;100.00
81299;BME280;70766;53.170;18.160;2024-01-15T06:29:48;98319.02;;;-0.25;100.00
81299;BME280;70766;53.170;18.160;2024-01-15T06:32:18;98314.02;;;-0.25;100.00
81299;BME280;70766;53.170;18.160;2024-01-15T06:34:46;98316.38;;;-0.24;100.00
81299;BME280;70766;53.170;18.160;2024-01-15T06:37:15;98312.23;;;-0.25;100.00
81299;BME280;70766;53.170;18.160;2024-01-15T06:39:43;98315.20;;;-0.24;100.00
81299;BME280;70766;53.170;18.160;2024-01-15T06:42:11;98311.15;;;-0.24;100.00
81299;BME280;70766;53.170;18.160;2024-01-15T06:44:39;98309.45;;;-0.21;100.00
81299;BME280;70766;53.170;18.160;2024-01-15T06:47:07;98305.89;;;-0.20;100.00
81299;BME280;70766;53.170;18.160;2024-01-15T06:49:36;98305.11;;;-0.20;100.00
81299;BME280;70766;53.170;18.160;2024-01-15T06:52:05;98307.64;;;-0.18;100.00
81299;BME280;70766;53.170;18.160;2024-01-15T06:54:33;98305.96;;;-0.15;100.00
81299;BME280;70766;53.170;18.160;2024-01-15T06:57:01;98306.01;;;-0.17;100.00
81299;BME280;70766;53.170;18.160;2024-01-15T06:59:30;98303.61;;;-0.16;100.00
81299;BME280;70766;53.170;18.160;2024-01-15T07:01:58;98299.52;;;-0.16;100.00
81299;BME280;70766;53.170;18.160;2024-01-15T07:04:27;98299.94;;;-0.14;100.00
81299;BME280;70766;53.170;18.160;2024-01-15T07:06:56;98299.05;;;-0.10;100.00
81299;BME280;70766;53.170;18.160;2024-01-15T07:09:24;98293.58;;;-0.10;100.00
81299;BME280;70766;53.170;18.160;2024-01-15T07:11:53;98295.52;;;-0.09;100.00
81299;BME280;70766;53.170;18.160;2024-01-15T07:14:21;98290.67;;;-0.07;100.00
81299;BME280;70766;53.170;18.160;2024-01-15T07:16:50;98297.60;;;-0.06;100.00
81299;BME280;70766;53.170;18.160;2024-01-15T07:19:18;98294.55;;;-0.04;100.00
81299;BME280;70766;53.170;18.160;2024-01-15T07:21:46;98292.19;;;0.02;100.00
81299;BME280;70766;53.170;18.160;2024-01-15T07:24:15;98297.34;;;0.05;100.00
81299;BME280;70766;53.170;18.160;2024-01-15T07:26:43;98291.95;;;0.08;100.00
81299;BME280;70766;53.170;18.160;2024-01-15T07:29:12;98299.04;;;0.07;100.00
81299;BME280;70766;53.170;18.160;2024-01-15T07:31:40;98298.70;;;0.06;100.00
81299;BME280;70766;53.170;18.160;2024-01-15T07:34:09;98305.20;;;0.05;100.00
81299;BME280;70766;53.170;18.160;2024-01-15T07:36:37;98302.58;;;0.05;100.00
81299;BME280;70766;53.170;18.160;2024-01-15T07:39:05;98303.61;;;0.06;100.00
81299;BME280;70766;53.170;18.160;2024-01-15T07:41:33;98304.59;;;0.07;100.00
81299;BME280;70766;53.170;18.160;2024-01-15T07:44:02;98304.02;;;0.06;100.00
81299;BME280;70766;53.170;18.160;2024-01-15T07:46:30;98306.38;;;0.06;100.00
81299;BME280;70766;53.170;18.160;2024-01-15T07:48:58;98305.33;;;0.08;100.00
81299;BME280;70766;53.170;18.160;2024-01-15T07:51:27;98306.19;;;0.09;100.00
81299;BME280;70766;53.170;18.160;2024-01-15T07:53:55;98291.98;;;0.13;100.00
81299;BME280;70766;53.170;18.160;2024-01-15T07:56:24;98293.06;;;0.15;100.00
81299;BME280;70766;53.170;18.160;2024-01-15T07:58:52;98293.88;;;0.19;100.00
81299;BME280;70766;53.170;18.160;2024-01-15T08:01:20;98290.02;;;0.26;100.00
81299;BME280;70766;53.170;18.160;2024-01-15T08:03:48;98288.06;;;0.33;100.00
81299;BME280;70766;53.170;18.160;2024-01-15T08:06:16;98285.58;;;0.36;100.00
81299;BME280;70766;53.170;18.160;2024-01-15T08:08:45;98289.83;;;0.41;100.00
81299;BME280;70766;53.170;18.160;2024-01-15T08:11:13;98288.99;;;0.47;100.00
81299;BME280;70766;53.170;18.160;2024-01-15T08:13:41;98288.09;;;0.48;100.00
81299;BME280;70766;53.170;18.160;2024-01-15T08:16:09;98284.17;;;0.53;100.00
81299;BME280;70766;53.170;18.160;2024-01-15T08:18:37;98285.52;;;0.60;100.00
81299;BME280;70766;53.170;18.160;2024-01-15T08:21:06;98286.31;;;0.61;100.00
81299;BME280;70766;53.170;18.160;2024-01-15T08:23:35;98283.05;;;0.58;100.00
81299;BME280;70766;53.170;18.160;2024-01-15T08:26:03;98286.76;;;0.64;100.00
81299;BME280;70766;53.170;18.160;2024-01-15T08:28:31;98282.42;;;0.73;100.00
81299;BME280;70766;53.170;18.160;2024-01-15T08:31:00;98284.47;;;0.82;100.00
81299;BME280;70766;53.170;18.160;2024-01-15T08:33:29;98280.11;;;0.79;100.00
81299;BME280;70766;53.170;18.160;2024-01-15T08:35:57;98278.54;;;0.85;100.00
81299;BME280;70766;53.170;18.160;2024-01-15T08:38:26;98278.27;;;0.91;100.00
81299;BME280;70766;53.170;18.160;2024-01-15T08:40:54;98270.89;;;0.95;100.00
81299;BME280;70766;53.170;18.160;2024-01-15T08:43:26;98275.58;;;1.09;100.00
81299;BME280;70766;53.170;18.160;2024-01-15T08:45:55;98275.48;;;1.15;100.00
81299;BME280;70766;53.170;18.160;2024-01-15T08:48:23;98273.66;;;1.14;100.00
81299;BME280;70766;53.170;18.160;2024-01-15T08:50:56;98277.10;;;1.10;100.00
81299;BME280;70766;53.170;18.160;2024-01-15T08:53:25;98279.44;;;1.09;100.00
81299;BME280;70766;53.170;18.160;2024-01-15T08:55:53;98274.80;;;1.06;100.00
81299;BME280;70766;53.170;18.160;2024-01-15T08:58:23;98269.32;;;1.12;100.00
81299;BME280;70766;53.170;18.160;2024-01-15T09:00:52;98266.62;;;1.24;100.00
81299;BME280;70766;53.170;18.160;2024-01-15T09:03:20;98268.65;;;1.27;100.00
81299;BME280;70766;53.170;18.160;2024-01-15T09:05:48;98268.62;;;1.23;100.00
81299;BME280;70766;53.170;18.160;2024-01-15T09:08:18;98274.63;;;1.21;100.00
81299;BME280;70766;53.170;18.160;2024-01-15T09:10:46;98262.95;;;1.17;100.00
81299;BME280;70766;53.170;18.160;2024-01-15T09:13:14;98264.88;;;1.18;100.00
81299;BME280;70766;53.170;18.160;2024-01-15T09:15:42;98266.39;;;1.23;100.00
81299;BME280;70766;53.170;18.160;2024-01-15T09:18:10;98259.69;;;1.29;100.00
81299;BME280;70766;53.170;18.160;2024-01-15T09:20:38;98258.66;;;1.18;100.00
81299;BME280;70766;53.170;18.160;2024-01-15T09:23:07;98260.81;;;1.10;100.00
81299;BME280;70766;53.170;18.160;2024-01-15T09:25:35;98254.61;;;1.05;100.00
81299;BME280;70766;53.170;18.160;2024-01-15T09:28:03;98250.64;;;0.99;100.00
81299;BME280;70766;53.170;18.160;2024-01-15T09:30:31;98255.30;;;0.95;100.00
81299;BME280;70766;53.170;18.160;2024-01-15T09:33:25;98249.55;;;0.93;100.00
81299;BME280;70766;53.170;18.160;2024-01-15T09:35:53;98233.76;;;0.93;100.00
81299;BME280;70766;53.170;18.160;2024-01-15T09:38:21;98237.78;;;0.92;100.00
81299;BME280;70766;53.170;18.160;2024-01-15T09:40:50;98245.84;;;0.91;100.00
81299;BME280;70766;53.170;18.160;2024-01-15T09:43:18;98238.38;;;0.96;100.00
81299;BME280;70766;53.170;18.160;2024-01-15T09:45:47;98233.14;;;1.06;100.00
81299;BME280;70766;53.170;18.160;2024-01-15T09:48:17;98235.28;;;1.11;100.00
81299;BME280;70766;53.170;18.160;2024-01-15T09:50:46;98231.09;;;1.16;100.00
81299;BME280;70766;53.170;18.160;2024-01-15T09:53:15;98230.38;;;1.36;100.00
81299;BME280;70766;53.170;18.160;2024-01-15T09:55:43;98239.58;;;1.61;100.00
81299;BME280;70766;53.170;18.160;2024-01-15T09:58:11;98230.67;;;1.71;100.00
81299;BME280;70766;53.170;18.160;2024-01-15T10:00:40;98240.41;;;1.63;100.00
81299;BME280;70766;53.170;18.160;2024-01-15T10:03:37;98237.79;;;1.57;99.75
81299;BME280;70766;53.170;18.160;2024-01-15T10:06:07;98244.71;;;1.45;99.66
81299;BME280;70766;53.170;18.160;2024-01-15T10:08:38;98250.03;;;1.24;100.00
81299;BME280;70766;53.170;18.160;2024-01-15T10:11:07;98254.05;;;1.02;100.00
81299;BME280;70766;53.170;18.160;2024-01-15T10:13:45;98237.95;;;0.80;100.00
81299;BME280;70766;53.170;18.160;2024-01-15T10:16:16;98245.38;;;0.62;100.00
81299;BME280;70766;53.170;18.160;2024-01-15T10:18:44;98259.88;;;0.58;100.00
81299;BME280;70766;53.170;18.160;2024-01-15T10:21:13;98251.09;;;0.59;100.00
81299;BME280;70766;53.170;18.160;2024-01-15T10:23:42;98249.95;;;0.75;100.00
81299;BME280;70766;53.170;18.160;2024-01-15T10:26:10;98244.33;;;1.00;100.00
81299;BME280;70766;53.170;18.160;2024-01-15T10:28:43;98242.62;;;1.25;100.00
81299;BME280;70766;53.170;18.160;2024-01-15T10:31:11;98247.98;;;1.52;100.00
81299;BME280;70766;53.170;18.160;2024-01-15T10:33:40;98245.87;;;1.97;100.00
81299;BME280;70766;53.170;18.160;2024-01-15T10:36:09;98243.35;;;2.19;100.00
81299;BME280;70766;53.170;18.160;2024-01-15T10:38:37;98245.81;;;2.03;98.45
81299;BME280;70766;53.170;18.160;2024-01-15T10:41:06;98248.11;;;1.90;98.42
81299;BME280;70766;53.170;18.160;2024-01-15T10:43:34;98233.89;;;1.84;97.49
81299;BME280;70766;53.170;18.160;2024-01-15T10:46:02;98227.41;;;1.94;96.00
81299;BME280;70766;53.170;18.160;2024-01-15T10:48:30;98233.67;;;2.14;92.28
81299;BME280;70766;53.170;18.160;2024-01-15T10:51:00;98245.86;;;2.02;91.25
81299;BME280;70766;53.170;18.160;2024-01-15T10:53:28;98246.98;;;1.92;91.91
81299;BME280;70766;53.170;18.160;2024-01-15T10:55:57;98241.34;;;1.82;93.26
81299;BME280;70766;53.170;18.160;2024-01-15T10:58:28;98241.44;;;1.72;94.02
81299;BME280;70766;53.170;18.160;2024-01-15T11:00:58;98240.05;;;1.69;94.36
81299;BME280;70766;53.170;18.160;2024-01-15T11:03:27;98230.02;;;1.89;95.00
81299;BME280;70766;53.170;18.160;2024-01-15T11:05:56;98236.67;;;1.79;94.70
81299;BME280;70766;53.170;18.160;2024-01-15T11:08:25;98239.58;;;1.78;95.30
81299;BME280;70766;53.170;18.160;2024-01-15T11:10:53;98231.11;;;1.83;96.05
81299;BME280;70766;53.170;18.160;2024-01-15T11:13:40;98233.93;;;1.79;96.12
81299;BME280;70766;53.170;18.160;2024-01-15T11:16:13;98235.82;;;1.69;95.88
81299;BME280;70766;53.170;18.160;2024-01-15T11:18:43;98237.13;;;1.53;97.70
81299;BME280;70766;53.170;18.160;2024-01-15T11:23:47;98239.18;;;1.07;100.00
81299;BME280;70766;53.170;18.160;2024-01-15T11:29:05;98242.71;;;0.67;100.00
81299;BME280;70766;53.170;18.160;2024-01-15T11:34:05;98241.27;;;0.55;100.00
81299;BME280;70766;53.170;18.160;2024-01-15T11:41:57;98240.92;;;0.44;100.00
81299;BME280;70766;53.170;18.160;2024-01-15T11:44:26;98239.14;;;0.57;100.00
81299;BME280;70766;53.170;18.160;2024-01-15T11:52:21;98230.81;;;0.94;100.00
81299;BME280;70766;53.170;18.160;2024-01-15T11:55:07;98231.73;;;1.03;100.00
81299;BME280;70766;53.170;18.160;2024-01-15T11:57:45;98226.09;;;1.30;100.00
81299;BME280;70766;53.170;18.160;2024-01-15T12:00:14;98221.23;;;1.32;100.00
81299;BME280;70766;53.170;18.160;2024-01-15T12:02:45;98223.70;;;1.47;100.00
81299;BME280;70766;53.170;18.160;2024-01-15T12:05:19;98224.98;;;1.38;100.00
81299;BME280;70766;53.170;18.160;2024-01-15T12:07:49;98207.61;;;1.37;99.86
81299;BME280;70766;53.170;18.160;2024-01-15T12:10:20;98228.41;;;1.27;99.93
81299;BME280;70766;53.170;18.160;2024-01-15T12:15:26;98263.79;;;1.03;99.41
81299;BME280;70766;53.170;18.160;2024-01-15T12:17:56;98275.42;;;0.72;100.00
81299;BME280;70766;53.170;18.160;2024-01-15T12:20:32;98270.69;;;0.50;100.00
81299;BME280;70766;53.170;18.160;2024-01-15T12:23:02;98260.05;;;0.39;99.22
81299;BME280;70766;53.170;18.160;2024-01-15T12:25:41;98264.40;;;0.58;97.63
81299;BME280;70766;53.170;18.160;2024-01-15T12:28:09;98259.89;;;0.64;95.32
81299;BME280;70766;53.170;18.160;2024-01-15T12:30:38;98262.17;;;0.59;95.11
81299;BME280;70766;53.170;18.160;2024-01-15T12:33:07;98255.47;;;0.50;94.72
81299;BME280;70766;53.170;18.160;2024-01-15T12:35:37;98257.09;;;0.53;94.72
81299;BME280;70766;53.170;18.160;2024-01-15T12:38:05;98258.73;;;0.59;94.19
81299;BME280;70766;53.170;18.160;2024-01-15T12:40:34;98266.22;;;0.73;94.09
81299;BME280;70766;53.170;18.160;2024-01-15T12:43:07;98260.41;;;0.87;93.61
81299;BME280;70766;53.170;18.160;2024-01-15T12:45:36;98264.94;;;1.00;93.90
81299;BME280;70766;53.170;18.160;2024-01-15T12:48:06;98260.02;;;1.11;93.74
81299;BME280;70766;53.170;18.160;2024-01-15T12:50:34;98259.78;;;1.17;91.75
81299;BME280;70766;53.170;18.160;2024-01-15T12:53:04;98259.79;;;1.27;91.97
81299;BME280;70766;53.170;18.160;2024-01-15T12:55:32;98267.88;;;1.38;91.00
81299;BME280;70766;53.170;18.160;2024-01-15T12:58:26;98263.76;;;1.47;90.19
81299;BME280;70766;53.170;18.160;2024-01-15T13:00:55;98266.98;;;1.55;86.51
81299;BME280;70766;53.170;18.160;2024-01-15T13:03:23;98271.67;;;1.58;86.17
81299;BME280;70766;53.170;18.160;2024-01-15T13:05:51;98273.21;;;1.71;88.48
81299;BME280;70766;53.170;18.160;2024-01-15T13:08:20;98275.05;;;1.78;88.86
81299;BME280;70766;53.170;18.160;2024-01-15T13:10:52;98267.61;;;1.70;87.39
81299;BME280;70766;53.170;18.160;2024-01-15T13:13:24;98270.14;;;1.52;86.45
81299;BME280;70766;53.170;18.160;2024-01-15T13:15:52;98265.03;;;1.43;85.57
81299;BME280;70766;53.170;18.160;2024-01-15T13:18:20;98267.04;;;1.38;86.12